createdAt,value
2023-11-12T00:02:21.659Z,2.88
2023-11-12T00:04:48.469Z,2.70
2023-11-12T00:07:15.158Z,2.72
2023-11-12T00:09:41.839Z,2.53
2023-11-12T00:12:09.820Z,2.53
2023-11-12T00:14:36.611Z,2.35
2023-11-12T00:17:03.302Z,2.50
2023-11-12T00:19:33.965Z,2.65
2023-11-12T00:22:00.518Z,2.50
2023-11-12T00:24:28.960Z,2.60
2023-11-12T00:26:55.541Z,2.95
2023-11-12T00:29:22.097Z,3.03
2023-11-12T00:31:48.754Z,2.97
2023-11-12T00:34:15.287Z,2.90
2023-11-12T00:36:43.984Z,3.05
2023-11-12T00:39:10.826Z,3.25
2023-11-12T00:41:40.295Z,3.37
2023-11-12T00:44:12.055Z,2.88
2023-11-12T00:46:39.359Z,3.55
2023-11-12T00:49:06.400Z,3.65
2023-11-12T00:51:33.767Z,3.83
2023-11-12T00:54:00.242Z,3.90
2023-11-12T00:56:26.813Z,4.10
2023-11-12T00:58:54.024Z,4.13
2023-11-12T01:01:21.020Z,3.92
2023-11-12T01:03:47.636Z,3.65
2023-11-12T01:06:14.249Z,3.80
2023-11-12T01:08:40.745Z,3.70
2023-11-12T01:11:07.454Z,3.65
2023-11-12T01:13:34.275Z,3.63
2023-11-12T01:16:02.124Z,3.40
2023-11-12T01:18:29.616Z,3.73
2023-11-12T01:20:56.217Z,4.13
2023-11-12T01:23:23.030Z,3.78
2023-11-12T01:25:49.623Z,4.63
2023-11-12T01:28:16.151Z,3.70
2023-11-12T01:30:42.673Z,3.73
2023-11-12T01:33:09.224Z,3.60
2023-11-12T01:35:35.814Z,4.05
2023-11-12T01:38:02.320Z,3.80
2023-11-12T01:40:29.539Z,3.63
2023-11-12T01:42:56.148Z,4.00
2023-11-12T01:45:23.071Z,3.85
2023-11-12T01:47:50.352Z,3.65
2023-11-12T01:50:17.069Z,3.75
2023-11-12T01:52:45.947Z,3.63
2023-11-12T01:55:14.603Z,3.63
2023-11-12T01:57:44.080Z,3.30
2023-11-12T02:00:12.991Z,4.15
2023-11-12T02:02:40.491Z,3.60
2023-11-12T02:05:07.783Z,4.55
2023-11-12T02:07:36.176Z,3.53
2023-11-12T02:10:10.647Z,4.00
2023-11-12T02:12:38.526Z,3.78
2023-11-12T02:15:06.834Z,4.00
2023-11-12T02:17:33.563Z,3.90
2023-11-12T02:20:08.676Z,3.57
2023-11-12T02:22:35.756Z,3.70
2023-11-12T02:25:03.386Z,3.65
2023-11-12T02:27:30.039Z,4.05
2023-11-12T02:29:56.596Z,3.88
2023-11-12T02:32:23.395Z,3.60
2023-11-12T02:34:49.917Z,3.90
2023-11-12T02:37:16.446Z,3.90
2023-11-12T02:39:43.027Z,3.67
2023-11-12T02:42:10.506Z,3.78
2023-11-12T02:44:39.566Z,3.57
2023-11-12T02:47:07.453Z,4.20
2023-11-12T02:50:11.398Z,3.17
2023-11-12T02:52:38.071Z,2.65
2023-11-12T02:55:04.687Z,2.38
2023-11-12T02:57:31.317Z,2.83
2023-11-12T02:59:57.798Z,2.42
2023-11-12T03:02:25.106Z,3.05
2023-11-12T03:04:52.046Z,2.67
2023-11-12T03:07:21.344Z,3.25
2023-11-12T03:09:50.942Z,2.83
2023-11-12T03:12:17.550Z,2.78
2023-11-12T03:14:47.247Z,2.90
2023-11-12T03:17:14.013Z,3.50
2023-11-12T03:19:40.641Z,2.33
2023-11-12T03:22:07.789Z,2.30
2023-11-12T03:24:36.240Z,3.35
2023-11-12T03:27:02.846Z,3.97
2023-11-12T03:29:29.652Z,2.70
2023-11-12T03:31:56.194Z,2.88
2023-11-12T03:34:25.893Z,2.73
2023-11-12T03:36:52.586Z,3.03
2023-11-12T03:39:19.403Z,3.08
2023-11-12T03:41:45.981Z,2.70
2023-11-12T03:44:12.443Z,3.20
2023-11-12T03:46:39.053Z,2.73
2023-11-12T03:49:08.688Z,3.30
2023-11-12T03:51:35.479Z,2.92
2023-11-12T03:54:03.368Z,2.90
2023-11-12T03:56:31.015Z,2.53
2023-11-12T03:58:58.702Z,3.13
2023-11-12T04:01:25.848Z,2.80
2023-11-12T04:03:53.367Z,2.88
2023-11-12T04:06:20.936Z,3.20
2023-11-12T04:08:50.270Z,3.00
2023-11-12T04:11:16.885Z,2.70
2023-11-12T04:13:43.414Z,3.15
2023-11-12T04:16:10.169Z,3.05
2023-11-12T04:18:37.922Z,3.50
2023-11-12T04:21:07.070Z,3.65
2023-11-12T04:23:33.902Z,3.67
2023-11-12T04:26:00.555Z,3.05
2023-11-12T04:28:28.488Z,3.78
2023-11-12T04:30:56.190Z,3.17
2023-11-12T04:33:22.945Z,3.35
2023-11-12T04:35:51.028Z,3.33
2023-11-12T04:38:18.139Z,3.00
2023-11-12T04:40:45.613Z,3.20
2023-11-12T04:43:13.656Z,2.95
2023-11-12T04:45:40.378Z,3.33
2023-11-12T04:48:07.096Z,3.13
2023-11-12T04:50:34.238Z,3.67
2023-11-12T04:53:01.153Z,3.15
2023-11-12T04:55:27.701Z,3.10
2023-11-12T04:57:54.262Z,3.42
2023-11-12T05:00:21.064Z,2.87
2023-11-12T05:02:47.670Z,2.42
2023-11-12T05:05:14.489Z,2.65
2023-11-12T05:07:41.042Z,2.67
2023-11-12T05:10:09.804Z,2.72
2023-11-12T05:12:36.530Z,2.87
2023-11-12T05:15:03.411Z,3.08
2023-11-12T05:17:30.266Z,2.90
2023-11-12T05:19:57.161Z,3.30
2023-11-12T05:22:23.797Z,3.28
2023-11-12T05:24:52.526Z,2.83
2023-11-12T05:27:19.865Z,3.00
2023-11-12T05:29:46.389Z,3.05
2023-11-12T05:32:12.934Z,3.03
2023-11-12T05:34:40.397Z,3.33
2023-11-12T05:37:07.230Z,3.37
2023-11-12T05:39:33.980Z,3.90
2023-11-12T05:42:00.583Z,3.90
2023-11-12T05:44:27.104Z,3.63
2023-11-12T05:46:53.583Z,4.75
2023-11-12T05:49:20.470Z,3.73
2023-11-12T05:51:47.012Z,4.00
2023-11-12T05:54:15.761Z,4.15
2023-11-12T05:56:43.924Z,4.10
2023-11-12T05:59:10.420Z,4.10
2023-11-12T06:01:36.984Z,4.50
2023-11-12T06:04:03.894Z,3.95
2023-11-12T06:06:30.576Z,4.20
2023-11-12T06:08:57.779Z,3.50
2023-11-12T06:11:24.413Z,4.10
2023-11-12T06:13:50.871Z,3.70
2023-11-12T06:16:17.454Z,3.58
2023-11-12T06:18:44.434Z,3.90
2023-11-12T06:21:11.207Z,4.03
2023-11-12T06:23:42.809Z,4.10
2023-11-12T06:26:09.317Z,3.33
2023-11-12T06:28:35.816Z,3.75
2023-11-12T06:31:02.295Z,4.05
2023-11-12T06:33:28.950Z,4.10
2023-11-12T06:35:55.821Z,4.50
2023-11-12T06:38:22.397Z,5.37
2023-11-12T06:40:49.736Z,4.93
2023-11-12T06:43:16.245Z,4.68
2023-11-12T06:45:43.210Z,4.50
2023-11-12T06:48:09.749Z,4.80
2023-11-12T06:50:36.265Z,4.83
2023-11-12T06:53:04.515Z,4.65
2023-11-12T06:55:31.370Z,5.22
2023-11-12T06:57:57.826Z,5.30
2023-11-12T07:00:24.356Z,5.20
2023-11-12T07:02:50.887Z,5.07
2023-11-12T07:05:18.034Z,4.82
2023-11-12T07:07:44.645Z,5.00
2023-11-12T07:10:13.188Z,5.28
2023-11-12T07:12:39.816Z,5.03
2023-11-12T07:15:07.277Z,5.60
2023-11-12T07:17:36.904Z,5.15
2023-11-12T07:20:03.990Z,5.45
2023-11-12T07:22:31.790Z,5.72
2023-11-12T07:25:01.060Z,5.45
2023-11-12T07:27:27.861Z,6.27
2023-11-12T07:29:54.465Z,6.18
2023-11-12T07:32:22.173Z,6.22
2023-11-12T07:34:49.161Z,5.88
2023-11-12T07:37:15.853Z,6.22
2023-11-12T07:39:42.557Z,5.83
2023-11-12T07:42:09.113Z,5.97
2023-11-12T07:44:36.675Z,6.57
2023-11-12T07:47:05.842Z,6.13
2023-11-12T07:49:33.141Z,5.55
2023-11-12T07:51:59.674Z,5.27
2023-11-12T07:54:27.341Z,5.82
2023-11-12T07:56:53.911Z,6.22
2023-11-12T07:59:20.438Z,5.88
2023-11-12T08:01:50.949Z,5.75
2023-11-12T08:04:18.602Z,5.20
2023-11-12T08:06:50.524Z,6.32
2023-11-12T08:09:17.247Z,6.78
2023-11-12T08:11:43.884Z,6.28
2023-11-12T08:14:10.620Z,6.05
2023-11-12T08:16:37.952Z,6.20
2023-11-12T08:19:04.728Z,6.63
2023-11-12T08:21:31.291Z,6.68
2023-11-12T08:23:57.907Z,6.95
2023-11-12T08:26:24.394Z,6.95
2023-11-12T08:28:52.736Z,6.70
2023-11-12T08:31:19.284Z,6.97
2023-11-12T08:33:45.864Z,6.50
2023-11-12T08:36:12.483Z,6.68
2023-11-12T08:38:38.970Z,6.80
2023-11-12T08:41:07.005Z,7.07
2023-11-12T08:43:33.741Z,7.18
2023-11-12T08:46:00.626Z,6.72
2023-11-12T08:48:32.845Z,7.65
2023-11-12T08:51:00.222Z,7.97
2023-11-12T08:53:28.688Z,7.60
2023-11-12T08:55:55.352Z,7.20
2023-11-12T08:58:22.881Z,7.93
2023-11-12T09:00:49.699Z,7.05
2023-11-12T09:03:16.562Z,8.23
2023-11-12T09:05:43.171Z,7.97
2023-11-12T09:08:09.673Z,7.85
2023-11-12T09:10:36.188Z,7.43
2023-11-12T09:13:02.767Z,7.90
2023-11-12T09:15:29.277Z,8.10
2023-11-12T09:17:56.708Z,7.77
2023-11-12T09:20:24.112Z,7.82
2023-11-12T09:22:50.916Z,7.40
2023-11-12T09:25:17.632Z,7.30
2023-11-12T09:27:46.226Z,7.72
2023-11-12T09:30:13.162Z,7.57
2023-11-12T09:32:40.151Z,7.40
2023-11-12T09:35:07.799Z,7.07
2023-11-12T09:37:34.399Z,7.53
2023-11-12T09:40:01.363Z,7.40
2023-11-12T09:42:29.823Z,7.97
2023-11-12T09:44:57.081Z,7.60
2023-11-12T09:47:43.620Z,7.63
2023-11-12T09:50:13.380Z,7.75
2023-11-12T09:52:39.968Z,8.25
2023-11-12T09:55:08.176Z,8.20
2023-11-12T09:57:34.706Z,8.13
2023-11-12T10:00:03.566Z,8.60
2023-11-12T10:02:32.945Z,7.85
2023-11-12T10:05:00.954Z,7.70
2023-11-12T10:07:27.604Z,7.47
2023-11-12T10:09:55.482Z,7.70
2023-11-12T10:12:22.840Z,8.00
2023-11-12T10:15:02.220Z,7.55
2023-11-12T10:17:28.835Z,8.23
2023-11-12T10:19:59.872Z,7.63
2023-11-12T10:22:38.361Z,8.85
2023-11-12T10:25:05.433Z,9.15
2023-11-12T10:27:32.137Z,10.43
2023-11-12T10:30:17.719Z,10.48
2023-11-12T10:32:44.290Z,11.20
2023-11-12T10:35:11.692Z,10.88
2023-11-12T10:37:56.737Z,11.20
2023-11-12T10:40:24.377Z,11.98
2023-11-12T10:42:59.208Z,11.07
2023-11-12T10:45:28.939Z,11.33
2023-11-12T10:47:59.803Z,11.43
2023-11-12T10:50:26.892Z,11.10
2023-11-12T10:52:54.551Z,11.15
2023-11-12T10:55:23.368Z,11.23
2023-11-12T10:57:53.473Z,10.73
2023-11-12T11:00:21.209Z,10.32
2023-11-12T11:02:48.973Z,9.65
2023-11-12T11:05:17.681Z,8.57
2023-11-12T11:07:49.415Z,7.65
2023-11-12T11:10:17.229Z,7.57
2023-11-12T11:12:44.227Z,6.75
2023-11-12T11:15:42.612Z,6.75
2023-11-12T11:18:32.071Z,6.25
2023-11-12T11:21:07.523Z,6.43
2023-11-12T11:23:50.626Z,6.67
2023-11-12T11:26:29.436Z,6.97
2023-11-12T11:29:11.775Z,5.53
2023-11-12T11:32:02.164Z,4.25
2023-11-12T11:34:40.240Z,4.60
2023-11-12T11:37:07.382Z,4.33
2023-11-12T11:39:34.839Z,3.90
2023-11-12T11:42:07.924Z,4.47
2023-11-12T11:44:41.875Z,5.03
2023-11-12T11:47:19.454Z,5.28
2023-11-12T11:49:49.744Z,4.97
2023-11-12T11:52:21.715Z,5.43
2023-11-12T11:55:13.339Z,4.65
2023-11-12T11:57:52.390Z,5.15
2023-11-12T12:00:19.200Z,5.30
2023-11-12T12:02:46.829Z,5.37
2023-11-12T12:05:16.359Z,4.70
2023-11-12T12:07:46.126Z,4.60
2023-11-12T12:10:30.457Z,4.82
2023-11-12T12:12:57.603Z,5.15
2023-11-12T12:15:24.262Z,5.10
2023-11-12T12:17:50.957Z,4.55
2023-11-12T12:20:17.596Z,3.97
2023-11-12T12:22:44.418Z,4.05
2023-11-12T12:25:11.015Z,4.32
2023-11-12T12:27:38.636Z,4.50
2023-11-12T12:30:09.110Z,4.22
2023-11-12T12:32:38.287Z,4.00
2023-11-12T12:35:07.694Z,3.75
2023-11-12T12:37:34.648Z,4.30
2023-11-12T12:40:15.025Z,4.63
2023-11-12T12:42:44.419Z,3.67
2023-11-12T12:45:17.947Z,4.00
2023-11-12T12:47:45.670Z,4.20
2023-11-12T12:50:27.171Z,3.83
2023-11-12T12:53:13.793Z,4.10
2023-11-12T12:55:41.104Z,4.32
2023-11-12T12:58:08.281Z,4.32
2023-11-12T13:00:37.143Z,4.70
2023-11-12T13:03:04.369Z,4.90
2023-11-12T13:05:30.947Z,4.37
2023-11-12T13:07:57.976Z,4.72
2023-11-12T13:10:24.902Z,4.50
2023-11-12T13:12:53.992Z,4.78
2023-11-12T13:15:22.487Z,4.22
2023-11-12T13:17:49.633Z,3.83
2023-11-12T13:20:16.253Z,4.28
2023-11-12T13:22:43.113Z,4.20
2023-11-12T13:25:12.451Z,4.50
2023-11-12T13:27:40.295Z,4.55
2023-11-12T13:30:08.073Z,4.70
2023-11-12T13:32:35.467Z,4.63
2023-11-12T13:35:02.606Z,5.18
2023-11-12T13:37:31.124Z,4.80
2023-11-12T13:39:57.968Z,4.88
2023-11-12T13:42:24.697Z,4.60
2023-11-12T13:44:54.102Z,4.47
2023-11-12T13:47:22.253Z,4.75
2023-11-12T13:49:48.930Z,4.60
2023-11-12T13:52:16.220Z,5.25
2023-11-12T13:54:43.202Z,4.90
2023-11-12T13:57:10.303Z,5.03
2023-11-12T13:59:37.994Z,5.20
2023-11-12T14:02:04.863Z,5.50
2023-11-12T14:04:33.156Z,5.05
2023-11-12T14:06:59.834Z,4.77
2023-11-12T14:09:26.881Z,5.47
2023-11-12T14:11:53.511Z,5.70
2023-11-12T14:14:20.144Z,8.45
2023-11-12T14:16:47.829Z,7.60
2023-11-12T20:26:45.688Z,11.33
2023-11-12T20:29:13.316Z,11.85
2023-11-12T20:31:43.167Z,13.05
2023-11-12T20:34:13.024Z,11.23
2023-11-12T20:36:40.494Z,12.18
2023-11-12T20:39:16.268Z,12.10
2023-11-12T20:41:46.605Z,11.30
2023-11-12T20:44:14.341Z,11.32
2023-11-12T20:46:45.188Z,11.32
2023-11-12T20:49:17.809Z,10.43
2023-11-12T20:51:46.234Z,11.13
2023-11-12T20:54:19.368Z,10.85
2023-11-12T20:56:46.180Z,10.50
2023-11-12T20:59:14.021Z,10.80
2023-11-12T21:01:40.979Z,10.10
2023-11-12T21:04:11.318Z,10.50
2023-11-12T21:06:40.463Z,10.93
2023-11-12T21:09:09.487Z,10.30
2023-11-12T21:11:40.854Z,10.98
2023-11-12T21:14:12.130Z,11.20
2023-11-12T21:16:39.547Z,11.60
2023-11-12T21:19:06.969Z,11.98
2023-11-12T21:21:34.230Z,10.20
2023-11-12T21:24:06.931Z,10.32
2023-11-12T21:26:34.760Z,9.55
2023-11-12T21:29:01.399Z,8.67
2023-11-12T21:31:28.178Z,9.13
2023-11-12T21:33:54.947Z,8.77
2023-11-12T21:36:21.607Z,8.30
2023-11-12T21:38:48.281Z,9.13
2023-11-12T21:41:14.946Z,9.63
2023-11-12T21:43:41.933Z,7.60
2023-11-12T21:46:10.363Z,7.65
2023-11-12T21:48:38.889Z,7.55
2023-11-12T21:51:07.099Z,7.65
2023-11-12T21:53:36.593Z,7.23
2023-11-12T21:56:05.175Z,7.50
2023-11-12T21:58:32.785Z,7.20
2023-11-12T22:00:59.617Z,6.93
2023-11-12T22:03:27.726Z,7.20
2023-11-12T22:05:55.268Z,7.63
2023-11-12T22:08:23.520Z,7.30
2023-11-12T22:10:53.034Z,7.10
2023-11-12T22:13:20.117Z,8.40
2023-11-12T22:15:50.535Z,9.50
2023-11-12T22:18:18.525Z,11.67
2023-11-12T22:20:45.194Z,10.60
2023-11-12T22:23:12.601Z,11.25
2023-11-12T22:25:39.816Z,9.05
2023-11-12T22:28:06.928Z,9.25
2023-11-12T22:30:33.508Z,11.60
2023-11-12T22:33:00.116Z,13.23
2023-11-12T22:35:26.751Z,10.00
2023-11-12T22:37:53.297Z,8.48
2023-11-12T22:40:21.124Z,8.68
2023-11-12T22:42:47.947Z,8.77
2023-11-12T22:45:14.744Z,10.55
2023-11-12T22:47:42.409Z,9.48
2023-11-12T22:50:10.428Z,9.02
2023-11-12T22:52:37.421Z,10.68
2023-11-12T22:55:04.742Z,9.87
2023-11-12T22:57:33.566Z,11.18
2023-11-12T23:00:05.837Z,12.55
2023-11-12T23:02:33.764Z,15.45
2023-11-12T23:05:01.367Z,15.30
2023-11-12T23:07:28.448Z,16.37
2023-11-12T23:09:56.098Z,16.10
2023-11-12T23:12:22.637Z,15.93
2023-11-12T23:14:52.151Z,14.73
2023-11-12T23:17:22.508Z,15.23
2023-11-12T23:19:49.198Z,15.53
2023-11-12T23:22:16.450Z,13.30
2023-11-12T23:24:42.995Z,12.15
2023-11-12T23:27:09.835Z,11.48
2023-11-12T23:29:36.760Z,11.15
2023-11-12T23:32:09.488Z,12.63
2023-11-12T23:34:36.744Z,11.60
2023-11-12T23:37:06.473Z,11.50
2023-11-12T23:39:33.400Z,9.65
2023-11-12T23:41:59.994Z,10.63
2023-11-12T23:44:26.599Z,12.73
2023-11-12T23:46:53.180Z,11.57
2023-11-12T23:49:19.792Z,12.07
2023-11-12T23:51:46.576Z,10.45
2023-11-12T23:54:13.118Z,10.38
2023-11-12T23:56:39.666Z,10.17
2023-11-12T23:59:06.188Z,9.65
